Old Moulton, Texas
Current Conditions -  °F | °C
As of 7:55 AM on Monday 20 Oct 2014 (Local Time) from KT20 Reporting Station
Haze Haze  
Wind Chill: 64°   Ceiling: Unl
Heat Index: 64°   Visibility: 2.5mi
Dew Point: 64°   Wind: 6mph
Humidity: 99%   Direction: 40°NE
Pressure: 30.03"   Gusts: NA
Location:  29.5667°N, 97.0723°W
Report Text: KT20 201255Z AUTO 04005KT 2 1/2SM BR CLR 18/18 A3003 RMK AO2 T01780176
Loading
Personal Weather Stations






























Interactive Weather Map
Tropical Storm Tracking
New forecast layout! Learn more

10-Day Weather Forecast

Advertisements
Track Severe Weather on mobile